Latest Weather Observations for Camden

IDN60801

Issued at 9:13 am EDT Tuesday 27 October 2020 (issued every 10 minutes, with the page automatically refreshed every 10 minutes)

About weather observations | Map of weather stations | Latest weather observations for NSW | Other Formats
Station Details ID: 068192 Name: CAMDEN AIRPORT AWS Lat: -34.04 Lon: 150.69 Height: 73.9 m
Data from the previous 72 hours. | See also: Recent months at Camden
Date/Time
EDT
Temp
°C
App
Temp
°C
Dew
Point
°C
Rel
Hum
%
Delta-T
°C
Wind Press
QNH
hPa
Press
MSL
hPa
Rain since
9am
mm
Dir  Spd
km/h
Gust
km/h
Spd
kts
Gust
kts
27/09:00am 16.2 13.2 10.5 69 3.0 SSW 17 22 9 12 1021.1 1021.0 2.0
27/08:30am 15.1 12.0 10.3 73 2.5 SSW 17 24 9 13 1021.0 1020.9 2.0
27/08:00am 14.7 13.0 11.1 79 1.9 SW 11 15 6 8 1020.9 1020.8 2.0
27/07:30am 13.8 11.7 11.0 83 1.5 SW 13 19 7 10 1020.5 1020.4 2.0
27/07:00am 13.1 11.3 11.0 87 1.1 WSW 11 17 6 9 1020.4 1020.3 2.0
27/06:30am 12.8 11.0 11.0 89 0.9 SW 11 19 6 10 1019.9 1019.8 2.0
27/06:00am 12.9 10.4 11.0 88 1.0 SSW 15 22 8 12 1019.6 1019.5 2.0
27/05:30am 12.8 11.0 11.0 89 0.9 SSW 11 17 6 9 1019.5 1019.4 1.8
27/05:00am 12.7 11.3 10.9 89 0.9 SW 9 13 5 7 1019.4 1019.3 1.8
27/04:30am 12.6 11.2 11.0 90 0.8 SW 9 13 5 7 1019.2 1019.1 1.8
27/04:00am 12.6 11.2 11.0 90 0.8 SW 9 13 5 7 1019.5 1019.4 1.8
27/03:30am 12.6 10.8 11.0 90 0.8 SSW 11 17 6 9 1019.6 1019.5 1.8
27/03:00am 12.4 10.3 11.0 91 0.7 SW 13 17 7 9 1019.6 1019.5 1.6
27/02:41am 12.4 10.3 11.0 91 0.7 SW 13 17 7 9 1019.6 1019.5 1.6
27/02:30am 12.4 10.3 11.0 91 0.7 SW 13 17 7 9 1019.6 1019.5 1.6
27/02:28am 12.4 10.2 10.8 90 0.8 SW 13 17 7 9 1019.6 1019.5 1.6
27/02:00am 12.4 10.6 10.8 90 0.8 SW 11 15 6 8 1019.7 1019.6 1.6
27/01:30am 12.4 10.1 10.5 88 1.0 SSW 13 19 7 10 1020.0 1019.9 1.6
27/01:00am 12.2 10.3 10.6 90 0.8 SSW 11 15 6 8 1020.3 1020.2 1.4
27/12:30am 12.2 10.3 10.4 89 0.9 SSW 11 15 6 8 1020.6 1020.5 1.2
27/12:00am 12.1 9.8 10.5 90 0.8 SW 13 19 7 10 1020.9 1020.8 1.0
 
Date/Time
EDT
Temp
°C
App
Temp
°C
Dew
Point
°C
Rel
Hum
%
Delta-T
°C
Wind Press
QNH
hPa
Press
MSL
hPa
Rain since
9am
mm
Dir  Spd
km/h
Gust
km/h
Spd
kts
Gust
kts
26/11:30pm 12.2 9.9 10.6 90 0.8 SW 13 19 7 10 1021.3 1021.2 0.6
26/11:00pm 12.4 9.6 10.1 86 1.2 SW 15 20 8 11 1021.4 1021.3 0.4
26/10:30pm 12.3 10.4 10.4 88 1.0 SSW 11 19 6 10 1021.4 1021.3 0.4
26/10:00pm 12.3 9.6 10.2 87 1.1 SW 15 19 8 10 1021.3 1021.2 0.4
26/09:30pm 12.1 10.3 10.7 91 0.7 WSW 11 15 6 8 1021.2 1021.1 0.4
26/09:00pm 12.3 10.3 10.2 87 1.1 SW 11 15 6 8 1021.0 1020.9 0.2
26/08:30pm 12.4 9.2 10.0 85 1.2 SSW 17 22 9 12 1020.7 1020.6 0.0
26/08:00pm 12.7 9.2 10.1 84 1.3 SSW 19 28 10 15 1020.7 1020.6 0.0
26/07:30pm 13.0 9.1 9.4 79 1.8 SSW 20 28 11 15 1020.2 1020.1 0.0
26/07:00pm 13.4 10.0 9.3 76 2.1 S 17 30 9 16 1020.1 1020.0 0.0
26/06:30pm 13.6 8.8 8.9 73 2.4 S 24 37 13 20 1019.5 1019.4 0.0
26/06:00pm 13.7 8.5 9.0 73 2.4 S 26 37 14 20 1019.5 1019.4 0.0
26/05:30pm 14.2 9.4 9.0 71 2.6 S 24 37 13 20 1019.3 1019.2 0.0
26/05:00pm 14.4 10.0 8.8 69 2.8 S 22 35 12 19 1019.1 1019.0 0.0
26/04:30pm 14.7 10.7 9.1 69 2.9 S 20 28 11 15 1018.7 1018.5 0.0
26/04:00pm 14.5 9.3 8.9 69 2.8 S 26 39 14 21 1018.5 1018.3 0.0
26/03:30pm 15.7 10.3 8.0 60 3.9 SSE 26 39 14 21 1018.3 1018.1 0.0
26/03:00pm 16.2 10.8 8.2 59 4.1 SSE 26 35 14 19 1018.1 1017.9 0.0
26/02:44pm 16.2 10.3 7.7 57 4.3 SSE 28 48 15 26 1018.1 1017.9 0.0
26/02:30pm 17.0 10.2 7.1 52 4.9 SSE 32 41 17 22 1017.9 1017.7 0.0
26/02:22pm 17.0 10.8 6.2 49 5.3 SSE 28 46 15 25 1017.9 1017.7 0.0
26/02:00pm 17.4 11.0 6.9 50 5.2 SSE 30 44 16 24 1017.9 1017.7 0.0
26/01:31pm 18.0 11.9 6.8 48 5.6 S 28 46 15 25 1018.0 1017.8 0.0
26/01:30pm 17.9 12.3 7.0 49 5.5 S 26 46 14 25 1018.0 1017.8 0.0
26/01:01pm 17.5 10.7 6.7 49 5.4 S 32 50 17 27 1018.3 1018.1 0.0
26/01:00pm 17.9 11.1 7.0 49 5.5 S 32 48 17 26 1018.3 1018.1 0.0
26/12:41pm 17.7 11.4 7.4 51 5.2 SSE 30 48 16 26 1018.5 1018.3 0.0
26/12:30pm 17.5 10.8 7.5 52 5.1 S 32 46 17 25 1018.6 1018.4 0.0
26/12:00pm 17.6 12.7 8.5 55 4.7 SSE 24 43 13 23 1018.8 1018.6 0.0
26/11:30am 16.8 11.3 7.4 54 4.7 SSE 26 39 14 21 1019.0 1018.9 0.0
26/11:11am 16.4 10.6 8.1 58 4.2 SSE 28 46 15 25 1019.2 1019.1 0.0
26/11:00am 16.1 9.3 7.6 57 4.3 SSE 33 48 18 26 1019.2 1019.1 0.0
26/10:51am 16.2 10.5 8.2 59 4.1 S 28 48 15 26 1019.2 1019.1 0.0
26/10:30am 15.8 11.1 9.2 65 3.4 SSE 24 35 13 19 1019.4 1019.3 0.0
26/10:15am 15.6 10.9 9.3 66 3.3 SSE 24 44 13 24 1019.2 1019.1 0.0
26/10:00am 14.3 12.2 11.1 81 1.7 SSE 13 20 7 11 1019.3 1019.2 0.0
26/09:30am 13.7 12.8 11.2 85 1.3 SE 7 11 4 6 1019.4 1019.3 0.0
26/09:00am 13.3 11.6 11.2 87 1.1 SSE 11 17 6 9 1019.0 1018.9 26.8
26/08:30am 12.9 10.0 11.0 88 1.0 SSE 17 28 9 15 1018.9 1018.7 26.8
26/08:00am 13.0 8.3 10.7 86 1.2 S 26 33 14 18 1018.8 1018.6 26.6
26/07:30am 13.8 9.5 10.6 81 1.7 S 24 35 13 19 1018.3 1018.1 26.6
26/07:00am 13.2 8.9 10.7 85 1.3 S 24 37 13 20 1017.9 1017.7 26.6
26/06:30am 13.5 9.2 10.9 84 1.4 S 24 44 13 24 1017.4 1017.2 26.6
26/06:00am 13.4 9.6 11.1 86 1.2 S 22 32 12 17 1016.9 1016.7 26.6
26/05:30am 13.4 9.8 11.8 90 0.9 S 22 33 12 18 1016.6 1016.4 26.6
26/05:20am 13.3 9.9 12.4 94 0.5 SSE 22 33 12 18 1016.6 1016.4 26.6
26/05:09am 13.2 9.4 12.4 95 0.4 S 24 35 13 19 1016.5 1016.3 26.6
26/05:00am 13.3 9.5 12.5 95 0.4 S 24 35 13 19 1016.5 1016.3 26.6
26/04:30am 13.4 10.4 12.6 95 0.4 S 20 30 11 16 1016.2 1016.0 26.0
26/04:00am 13.3 10.3 12.7 96 0.3 S 20 28 11 15 1016.5 1016.3 25.8
26/03:39am 13.5 10.8 12.9 96 0.3 S 19 28 10 15 1016.4 1016.2 25.8
26/03:30am 13.4 11.1 12.9 97 0.3 S 17 26 9 14 1016.4 1016.2 25.4
26/03:00am 13.3 12.2 13.0 98 0.2 S 11 17 6 9 1016.1 1015.9 24.8
26/02:37am 13.4 11.9 13.1 98 0.2 S 13 19 7 10 1016.1 1015.9 24.4
26/02:36am 13.4 11.9 13.1 98 0.2 S 13 20 7 11 1016.1 1015.9 24.4
26/02:30am 13.4 10.7 12.9 97 0.3 S 19 28 10 15 1016.2 1016.0 24.4
26/02:20am 13.5 10.8 12.9 96 0.3 S 19 32 10 17 1016.1 1015.9 23.8
26/02:16am 13.5 11.2 12.9 96 0.3 S 17 24 9 13 1016.1 1015.9 23.6
26/02:00am 13.6 11.1 13.4 99 0.1 S 19 37 10 20 1016.3 1016.1 23.2
26/01:30am 13.3 11.0 13.1 99 0.1 SSW 17 22 9 12 1016.6 1016.4 21.6
26/01:10am 13.3 11.8 13.0 98 0.2 S 13 20 7 11 1016.9 1016.7 19.2
26/01:04am 13.3 11.4 13.0 98 0.2 SSW 15 20 8 11 1017.0 1016.8 18.6
26/01:00am 13.2 11.3 12.9 98 0.2 SSW 15 20 8 11 1016.9 1016.7 18.4
26/12:32am 13.1 10.9 12.2 94 0.5 SSW 15 20 8 11 1017.1 1016.9 17.2
26/12:30am 13.1 10.6 12.2 94 0.5 SSW 17 22 9 12 1017.1 1016.9 17.2
26/12:00am 13.1 10.1 12.0 93 0.6 SSW 19 24 10 13 1017.1 1016.9 17.2
 
Date/Time
EDT
Temp
°C
App
Temp
°C
Dew
Point
°C
Rel
Hum
%
Delta-T
°C
Wind Press
QNH
hPa
Press
MSL
hPa
Rain since
9am
mm
Dir  Spd
km/h
Gust
km/h
Spd
kts
Gust
kts
25/11:30pm 12.8 10.5 11.7 93 0.6 SSW 15 24 8 13 1017.3 1017.1 17.0
25/11:00pm 12.6 10.2 11.5 93 0.6 S 15 20 8 11 1017.6 1017.4 16.6
25/10:30pm 12.7 9.5 11.4 92 0.7 S 19 28 10 15 1017.6 1017.4 16.2
25/10:00pm 12.9 9.9 11.8 93 0.6 S 19 28 10 15 1017.7 1017.5 15.8
25/09:30pm 12.7 9.9 11.4 92 0.7 S 17 26 9 14 1017.4 1017.2 14.2
25/09:00pm 12.8 9.5 11.0 89 0.9 SSW 19 28 10 15 1017.5 1017.3 13.2
25/08:30pm 12.8 9.6 11.4 91 0.7 SSW 19 28 10 15 1017.1 1016.9 13.0
25/08:00pm 12.7 10.4 11.6 93 0.6 SW 15 20 8 11 1016.9 1016.7 12.8
25/07:30pm 12.6 10.3 11.7 94 0.5 SW 15 20 8 11 1016.2 1016.0 12.2
25/07:00pm 12.7 10.0 11.6 93 0.6 SW 17 22 9 12 1015.6 1015.4 12.0
25/06:30pm 12.2 9.9 11.6 96 0.3 SW 15 22 8 12 1014.9 1014.8 12.0
25/06:00pm 12.2 10.2 11.4 95 0.4 SW 13 20 7 11 1015.3 1015.2 10.6
25/05:30pm 12.4 10.4 11.6 95 0.4 WSW 13 17 7 9 1015.6 1015.4 9.0
25/05:00pm 12.3 9.9 11.5 95 0.4 SW 15 20 8 11 1014.8 1014.7 7.4
25/04:30pm 12.4 10.4 11.5 94 0.5 SW 13 15 7 8 1015.0 1014.9 6.0
25/04:00pm 12.4 10.5 11.8 96 0.3 SW 13 19 7 10 1014.6 1014.5 4.8
25/03:30pm 12.4 10.5 11.8 96 0.3 WSW 13 19 7 10 1014.7 1014.6 3.6
25/03:00pm 12.2 9.3 11.1 93 0.6 WSW 17 20 9 11 1014.8 1014.7 2.2
25/02:30pm 13.9 10.9 9.3 74 2.4 SSW 15 24 8 13 1014.5 1014.4 0.0
25/02:00pm 14.7 11.0 9.3 70 2.8 SSW 19 28 10 15 1014.5 1014.4 0.0
25/01:30pm 15.1 12.2 9.5 69 2.9 S 15 22 8 12 1014.5 1014.4 0.0
25/01:00pm 14.8 12.2 9.4 70 2.8 SSW 13 20 7 11 1014.4 1014.3 0.0
25/12:30pm 14.8 11.8 9.2 69 2.9 SSW 15 22 8 12 1014.4 1014.3 0.0
25/12:00pm 15.0 11.9 8.7 66 3.2 S 15 22 8 12 1014.5 1014.4 0.0
25/11:30am 15.0 11.9 8.7 66 3.2 S 15 22 8 12 1014.6 1014.5 0.0
25/11:00am 15.0 12.6 8.7 66 3.2 S 11 19 6 10 1014.6 1014.5 0.0
25/10:30am 14.9 12.1 8.4 65 3.3 S 13 20 7 11 1014.5 1014.4 0.0
25/10:00am 14.4 11.2 8.6 68 2.9 SSW 15 20 8 11 1014.2 1014.1 0.0
25/09:30am 14.6 10.8 9.2 70 2.8 S 19 30 10 16 1014.0 1013.9 0.0
25/09:00am 14.8 11.8 9.4 70 2.8 S 15 22 8 12 1013.6 1013.5 11.8
25/08:30am 14.1 11.2 9.7 75 2.3 S 15 24 8 13 1013.4 1013.3 11.8
25/08:00am 13.7 10.4 9.6 76 2.1 S 17 33 9 18 1012.9 1012.8 11.8
25/07:30am 13.5 12.0 10.7 83 1.5 S 9 15 5 8 1012.4 1012.3 11.8
25/07:00am 13.5 11.3 10.7 83 1.5 S 13 17 7 9 1011.9 1011.8 11.8
25/06:30am 13.3 12.0 11.2 87 1.1 S 9 15 5 8 1011.3 1011.2 11.8
25/06:00am 13.5 11.7 11.0 85 1.3 SSW 11 15 6 8 1010.8 1010.7 11.8
25/05:30am 13.8 12.5 11.3 85 1.3 SSW 9 11 5 6 1010.1 1010.0 11.8
25/05:00am 13.8 12.5 11.1 84 1.4 SSW 9 15 5 8 1009.7 1009.6 11.8
25/04:30am 14.0 14.1 11.5 85 1.3 SSW 2 7 1 4 1009.2 1009.1 11.8
25/04:00am 14.1 13.5 11.6 85 1.3 SSW 6 7 3 4 1008.8 1008.7 11.8
25/03:30am 14.2 13.5 11.9 86 1.2 S 7 15 4 8 1008.5 1008.4 11.8
25/03:00am 14.2 13.2 12.2 88 1.1 S 9 15 5 8 1008.3 1008.2 11.8
25/02:30am 13.7 12.7 12.4 92 0.7 S 9 13 5 7 1008.1 1008.0 11.8
25/02:00am 14.2 13.0 12.8 91 0.8 S 11 17 6 9 1008.1 1008.0 11.6
25/01:30am 14.6 13.1 13.1 91 0.8 S 13 20 7 11 1007.8 1007.7 11.2
25/01:00am 14.9 13.9 13.4 91 0.8 S 11 19 6 10 1007.5 1007.4 10.8
25/12:30am 15.2 12.7 13.4 89 1.0 SSE 19 26 10 14 1006.8 1006.6 10.8
25/12:00am 16.3 15.0 15.8 97 0.3 S 17 26 9 14 1006.7 1006.5 10.8
 
Date/Time
EDT
Temp
°C
App
Temp
°C
Dew
Point
°C
Rel
Hum
%
Delta-T
°C
Wind Press
QNH
hPa
Press
MSL
hPa
Rain since
9am
mm
Dir  Spd
km/h
Gust
km/h
Spd
kts
Gust
kts
24/11:30pm 16.4 16.5 15.4 94 0.6 SSE 9 11 5 6 1005.9 1005.7 10.6
24/11:27pm 16.5 16.6 15.4 93 0.6 SSE 9 15 5 8 1005.8 1005.6 10.6
24/11:22pm 16.4 16.0 15.3 93 0.6 SE 11 17 6 9 1005.5 1005.3 10.6
24/11:08pm 17.5 16.2 15.7 89 1.1 SSW 17 30 9 16 1005.6 1005.4 9.6
24/11:00pm 18.2 17.0 16.0 87 1.3 W 17 30 9 16 1005.8 1005.6 8.2
24/10:30pm 19.0 20.8 18.8 99 0.1 NNE 7 11 4 6 1005.1 1004.9 8.0
24/10:00pm 19.2 21.1 19.0 99 0.1 N 7 11 4 6 1005.2 1005.0 8.0
24/09:40pm 19.2 22.1 19.0 99 0.1 NNE 2 6 1 3 1004.8 1004.6 7.8
24/09:30pm 19.2 21.3 19.0 99 0.1 NNE 6 11 3 6 1004.8 1004.6 7.8
24/09:00pm 19.4 22.4 19.2 99 0.1 NNE 2 7 1 4 1004.4 1004.2 7.8
24/08:45pm 19.5 21.8 19.5 100 0.0 N 6 7 3 4 1004.1 1003.9 7.8
24/08:30pm 19.7 21.6 19.7 100 0.0 NNE 9 11 5 6 1003.8 1003.6 7.8
24/08:00pm 19.9 21.9 19.9 100 0.0 N 9 13 5 7 1003.5 1003.3 7.8
24/07:30pm 19.9 21.1 19.9 100 0.0 NNE 13 17 7 9 1003.3 1003.1 7.8
24/07:00pm 20.0 22.5 19.8 99 0.1 N 6 11 3 6 1003.0 1002.8 7.6
24/06:53pm 20.1 22.1 19.9 99 0.1 NW 9 17 5 9 1003.0 1002.8 7.4
24/06:40pm 20.0 21.5 19.8 99 0.1 ENE 11 17 6 9 1002.6 1002.4 7.4
24/06:30pm 20.2 21.4 20.0 99 0.1 N 13 17 7 9 1002.8 1002.6 7.2
24/06:00pm 20.6 23.2 20.4 99 0.1 NE 7 13 4 7 1003.0 1002.8 6.8
24/05:53pm 20.7 23.5 20.5 99 0.1 ENE 6 11 3 6 1002.8 1002.6 6.6
24/05:40pm 20.6 24.5 20.3 98 0.2 CALM 0 0 0 0 1002.8 1002.6 6.2
24/05:37pm 20.6 24.4 20.1 97 0.3 CALM 0 0 0 0 1003.1 1002.9 6.2
24/05:30pm 20.5 23.8 20.0 97 0.3 W 2 7 1 4 1003.0 1002.8 6.0
24/05:18pm 20.6 24.3 19.9 96 0.4 CALM 0 6 0 3 1002.9 1002.7 5.2
24/05:00pm 21.1 23.8 20.6 97 0.3 NNW 7 11 4 6 1003.0 1002.8 3.8
24/04:30pm 21.1 22.9 20.4 96 0.5 N 11 13 6 7 1002.7 1002.5 3.4
24/04:26pm 21.1 22.9 20.4 96 0.5 N 11 13 6 7 1002.6 1002.4 3.2
24/04:15pm 21.1 22.8 20.1 94 0.6 NNE 11 17 6 9 1002.4 1002.2 3.2
24/04:00pm 20.9 21.6 19.7 93 0.8 NNE 15 19 8 10 1002.5 1002.3 3.2
24/03:59pm 21.0 21.8 19.8 93 0.8 NNE 15 17 8 9 1002.5 1002.3 3.2
24/03:30pm 21.5 23.5 20.8 96 0.5 NNE 11 17 6 9 1002.1 1001.9 3.2
24/03:00pm 21.6 23.5 21.4 99 0.1 N 13 17 7 9 1002.8 1002.6 3.0
24/02:30pm 21.2 22.1 20.9 98 0.2 NNE 17 20 9 11 1003.2 1003.0 3.0
24/02:00pm 21.5 22.2 20.5 94 0.6 N 17 20 9 11 1003.5 1003.3 1.8
24/01:30pm 22.2 22.0 19.4 84 1.8 N 19 22 10 12 1003.6 1003.4 0.6
24/01:00pm 23.3 23.7 19.0 77 2.7 N 15 19 8 10 1003.5 1003.3 0.0
24/12:30pm 23.4 23.5 18.3 73 3.2 NNE 15 22 8 12 1003.7 1003.5 0.0
24/12:00pm 25.2 25.3 19.1 69 3.9 NNE 17 26 9 14 1004.0 1003.8 0.0
24/11:30am 24.3 24.7 19.8 76 2.9 N 17 24 9 13 1004.4 1004.2 0.0
24/11:00am 22.1 22.5 18.9 82 2.0 N 15 19 8 10 1004.6 1004.4 0.0
24/10:30am 21.9 21.8 18.7 82 2.0 NNE 17 20 9 11 1005.1 1004.9 0.0
24/10:00am 21.9 22.5 18.7 82 2.0 N 13 19 7 10 1005.5 1005.3 0.0
24/09:30am 21.7 22.8 18.9 84 1.8 NNE 11 15 6 8 1005.4 1005.2 0.0

Other formats

Comma delimited format used in spreadsheet applications
http://www.bom.gov.au/fwo/IDN60801/IDN60801.94755.axf

JavaScript Object Notation format (JSON) in row-major order
http://www.bom.gov.au/fwo/IDN60801/IDN60801.94755.json

Data quality

Most of these data are generated automatically and are frequently updated. Quality checks on data are not normally performed. It is possible for incorrect values to appear. Refer to information at About Latest Weather Observations and please check the disclaimer before using these data.